createdAt,value
2023-05-12T00:00:37.025Z,99181.66
2023-05-12T00:03:12.780Z,99183.59
2023-05-12T00:05:40.864Z,99189.90
2023-05-12T00:08:08.785Z,99190.77
2023-05-12T00:10:36.880Z,99192.33
2023-05-12T00:13:04.830Z,99190.37
2023-05-12T00:15:32.894Z,99192.93
2023-05-12T00:18:00.802Z,99191.81
2023-05-12T00:20:28.792Z,99192.95
2023-05-12T00:22:56.723Z,99191.64
2023-05-12T00:25:24.662Z,99192.68
2023-05-12T00:27:52.513Z,99193.07
2023-05-12T00:30:21.312Z,99188.23
2023-05-12T00:32:49.690Z,99190.21
2023-05-12T00:35:17.853Z,99190.27
2023-05-12T00:37:45.800Z,99192.75
2023-05-12T00:40:13.922Z,99195.98
2023-05-12T00:42:42.150Z,99191.28
2023-05-12T00:45:10.745Z,99195.92
2023-05-12T00:47:39.398Z,99196.32
2023-05-12T00:50:08.596Z,99196.79
2023-05-12T00:52:36.698Z,99197.05
2023-05-12T00:55:06.041Z,99201.67
2023-05-12T00:57:34.015Z,99200.63
2023-05-12T01:00:02.053Z,99202.77
2023-05-12T01:02:30.584Z,99202.33
2023-05-12T01:04:58.964Z,99202.61
2023-05-12T01:07:27.863Z,99199.26
2023-05-12T01:09:56.614Z,99200.50
2023-05-12T01:12:26.867Z,99204.70
2023-05-12T01:14:57.178Z,99205.56
2023-05-12T01:17:32.373Z,99205.04
2023-05-12T01:20:02.979Z,99205.64
2023-05-12T01:25:52.690Z,99207.72
2023-05-12T01:28:21.954Z,99207.12
2023-05-12T01:30:51.598Z,99204.64
2023-05-12T01:33:19.676Z,99204.10
2023-05-12T01:35:47.700Z,99205.80
2023-05-12T01:38:16.086Z,99207.59
2023-05-12T01:40:44.033Z,99206.04
2023-05-12T01:43:12.097Z,99205.86
2023-05-12T01:45:40.037Z,99208.00
2023-05-12T01:48:08.095Z,99204.73
2023-05-12T01:50:36.888Z,99203.73
2023-05-12T01:53:07.731Z,99206.02
2023-05-12T01:55:35.857Z,99204.23
2023-05-12T01:58:04.152Z,99203.28
2023-05-12T02:00:32.906Z,99202.83
2023-05-12T02:03:01.260Z,99205.41
2023-05-12T02:05:29.586Z,99203.45
2023-05-12T02:07:57.807Z,99199.52
2023-05-12T02:10:25.808Z,99204.50
2023-05-12T02:12:53.826Z,99206.75
2023-05-12T02:15:21.847Z,99203.74
2023-05-12T02:17:54.050Z,99206.16
2023-05-12T02:20:22.681Z,99212.72
2023-05-12T02:22:50.946Z,99215.92
2023-05-12T02:25:18.844Z,99218.42
2023-05-12T02:27:47.100Z,99220.76
2023-05-12T02:30:15.705Z,99218.91
2023-05-12T02:32:43.848Z,99218.80
2023-05-12T02:35:12.535Z,99221.17
2023-05-12T02:37:40.611Z,99219.84
2023-05-12T02:40:09.065Z,99219.38
2023-05-12T02:42:38.518Z,99218.41
2023-05-12T02:45:07.576Z,99221.77
2023-05-12T02:47:36.388Z,99221.45
2023-05-12T02:50:05.588Z,99218.87
2023-05-12T02:52:33.677Z,99220.83
2023-05-12T02:55:12.057Z,99222.60
2023-05-12T02:57:40.090Z,99222.48
2023-05-12T03:00:08.403Z,99224.20
2023-05-12T03:02:39.400Z,99224.77
2023-05-12T03:05:09.286Z,99224.66
2023-05-12T03:07:37.493Z,99225.92
2023-05-12T03:10:06.276Z,99228.39
2023-05-12T03:12:34.229Z,99225.01
2023-05-12T03:15:02.757Z,99227.87
2023-05-12T03:17:30.813Z,99223.70
2023-05-12T03:19:58.752Z,99226.19
2023-05-12T03:22:26.945Z,99221.30
2023-05-12T03:24:54.860Z,99225.46
2023-05-12T03:27:24.218Z,99228.48
2023-05-12T03:29:52.284Z,99227.83
2023-05-12T03:32:20.320Z,99228.75
2023-05-12T03:34:48.446Z,99231.44
2023-05-12T03:37:17.126Z,99231.73
2023-05-12T03:39:46.147Z,99233.48
2023-05-12T03:42:15.107Z,99234.35
2023-05-12T03:44:43.932Z,99232.02
2023-05-12T03:47:12.649Z,99231.66
2023-05-12T03:49:41.152Z,99230.92
2023-05-12T03:52:09.176Z,99231.48
2023-05-12T03:54:38.029Z,99228.29
2023-05-12T03:57:06.601Z,99230.11
2023-05-12T03:59:34.595Z,99228.11
2023-05-12T04:02:04.275Z,99221.40
2023-05-12T04:04:32.285Z,99224.08
2023-05-12T04:07:00.223Z,99223.66
2023-05-12T04:09:28.295Z,99224.80
2023-05-12T04:11:56.329Z,99229.88
2023-05-12T04:14:31.768Z,99232.48
2023-05-12T04:17:03.940Z,99230.94
2023-05-12T04:19:31.866Z,99229.34
2023-05-12T04:21:59.884Z,99232.48
2023-05-12T04:24:28.113Z,99232.87
2023-05-12T04:26:57.858Z,99233.84
2023-05-12T04:29:26.195Z,99235.27
2023-05-12T04:31:55.672Z,99234.38
2023-05-12T04:34:24.085Z,99234.20
2023-05-12T04:36:52.126Z,99225.63
2023-05-12T04:39:21.421Z,99224.73
2023-05-12T04:41:49.817Z,99227.07
2023-05-12T04:44:18.327Z,99231.24
2023-05-12T04:46:46.515Z,99238.70
2023-05-12T04:49:14.547Z,99243.78
2023-05-12T04:51:44.585Z,99242.73
2023-05-12T04:54:12.832Z,99242.93
2023-05-12T04:56:41.518Z,99245.23
2023-05-12T04:59:09.810Z,99242.55
2023-05-12T05:01:37.851Z,99241.30
2023-05-12T05:04:06.214Z,99243.52
2023-05-12T05:06:34.339Z,99239.41
2023-05-12T05:09:02.834Z,99237.77
2023-05-12T05:11:30.996Z,99235.68
2023-05-12T05:13:59.048Z,99235.73
2023-05-12T05:16:27.209Z,99234.73
2023-05-12T05:18:57.612Z,99239.73
2023-05-12T05:21:26.541Z,99236.50
2023-05-12T05:23:54.546Z,99237.83
2023-05-12T05:26:23.515Z,99236.98
2023-05-12T05:28:55.246Z,99235.14
2023-05-12T05:31:24.550Z,99236.21
2023-05-12T05:33:52.758Z,99235.67
2023-05-12T05:36:23.016Z,99234.64
2023-05-12T05:38:50.923Z,99236.04
2023-05-12T05:41:18.863Z,99235.65
2023-05-12T05:43:46.986Z,99237.56
2023-05-12T05:46:15.494Z,99234.63
2023-05-12T05:48:43.813Z,99233.90
2023-05-12T05:51:13.015Z,99237.11
2023-05-12T05:53:40.971Z,99234.31
2023-05-12T05:56:09.442Z,99236.54
2023-05-12T05:58:39.858Z,99237.42
2023-05-12T06:01:08.506Z,99241.71
2023-05-12T06:03:36.926Z,99242.37
2023-05-12T06:06:05.047Z,99244.11
2023-05-12T06:08:33.027Z,99244.47
2023-05-12T06:11:00.980Z,99246.45
2023-05-12T06:13:28.971Z,99246.25
2023-05-12T06:15:56.968Z,99254.05
2023-05-12T06:18:24.927Z,99251.81
2023-05-12T06:20:54.232Z,99251.84
2023-05-12T06:23:22.270Z,99254.48
2023-05-12T06:25:50.652Z,99254.70
2023-05-12T06:28:18.555Z,99249.90
2023-05-12T06:30:47.120Z,99253.19
2023-05-12T06:33:15.150Z,99258.98
2023-05-12T06:35:43.175Z,99260.11
2023-05-12T06:38:11.120Z,99259.23
2023-05-12T06:40:39.071Z,99260.31
2023-05-12T06:43:07.469Z,99263.45
2023-05-12T06:45:36.757Z,99263.86
2023-05-12T06:48:06.143Z,99260.08
2023-05-12T06:50:34.228Z,99256.71
2023-05-12T06:53:02.797Z,99256.57
2023-05-12T06:55:30.936Z,99253.02
2023-05-12T06:57:58.887Z,99255.50
2023-05-12T07:00:26.954Z,99257.57
2023-05-12T07:02:54.986Z,99258.33
2023-05-12T07:05:23.225Z,99258.80
2023-05-12T07:07:51.426Z,99259.30
2023-05-12T07:10:21.162Z,99260.65
2023-05-12T07:12:49.268Z,99258.95
2023-05-12T07:15:17.554Z,99260.31
2023-05-12T07:17:45.583Z,99259.53
2023-05-12T07:20:13.837Z,99256.00
2023-05-12T07:22:41.753Z,99253.40
2023-05-12T07:25:10.028Z,99256.39
2023-05-12T07:27:37.986Z,99262.23
2023-05-12T07:30:07.719Z,99261.05
2023-05-12T07:32:35.745Z,99262.09
2023-05-12T07:35:03.898Z,99266.39
2023-05-12T07:37:32.163Z,99267.67
2023-05-12T07:40:00.228Z,99266.81
2023-05-12T07:42:28.418Z,99270.36
2023-05-12T07:44:56.628Z,99273.70
2023-05-12T07:47:24.556Z,99273.15
2023-05-12T07:49:52.623Z,99275.52
2023-05-12T07:52:20.770Z,99273.98
2023-05-12T07:54:48.687Z,99275.86
2023-05-12T07:57:16.903Z,99273.95
2023-05-12T07:59:44.794Z,99274.98
2023-05-12T08:02:13.060Z,99277.01
2023-05-12T08:04:42.092Z,99277.15
2023-05-12T08:07:11.959Z,99275.89
2023-05-12T08:09:39.930Z,99275.75
2023-05-12T08:12:08.246Z,99276.61
2023-05-12T08:14:36.350Z,99281.41
2023-05-12T08:17:05.204Z,99281.02
2023-05-12T08:19:33.248Z,99284.34
2023-05-12T08:22:02.078Z,99284.20
2023-05-12T08:24:30.378Z,99286.55
2023-05-12T08:26:58.305Z,99285.63
2023-05-12T08:29:26.259Z,99288.13
2023-05-12T08:31:54.351Z,99285.84
2023-05-12T08:34:22.407Z,99285.22
2023-05-12T08:36:52.648Z,99284.89
2023-05-12T08:39:21.891Z,99288.02
2023-05-12T08:41:56.560Z,99287.25
2023-05-12T08:44:25.984Z,99288.35
2023-05-12T08:46:57.551Z,99288.58
2023-05-12T08:49:29.410Z,99289.90
2023-05-12T08:52:01.459Z,99291.48
2023-05-12T08:54:29.907Z,99288.39
2023-05-12T08:59:28.787Z,99287.11
2023-05-12T09:01:58.704Z,99291.45
2023-05-12T09:04:27.267Z,99290.14
2023-05-12T09:06:56.034Z,99283.79
2023-05-12T09:09:27.144Z,99288.35
2023-05-12T09:11:57.757Z,99285.95
2023-05-12T09:14:26.124Z,99285.21
2023-05-12T09:17:02.871Z,99281.41
2023-05-12T09:19:31.566Z,99282.37
2023-05-12T09:22:01.258Z,99279.75
2023-05-12T09:24:39.553Z,99278.81
2023-05-12T09:27:08.153Z,99275.64
2023-05-12T09:29:42.350Z,99275.38
2023-05-12T09:32:16.193Z,99277.08
2023-05-12T09:34:44.482Z,99270.41
2023-05-12T09:37:15.295Z,99270.66
2023-05-12T09:39:44.369Z,99273.11
2023-05-12T09:42:13.069Z,99272.45
2023-05-12T09:44:42.460Z,99267.14
2023-05-12T09:47:10.813Z,99265.13
2023-05-12T09:49:38.783Z,99266.50
2023-05-12T09:52:06.676Z,99270.45
2023-05-12T09:54:34.727Z,99267.09
2023-05-12T09:57:07.605Z,99264.02
2023-05-12T09:59:36.564Z,99259.29
2023-05-12T10:02:06.739Z,99259.00
2023-05-12T10:07:33.168Z,99260.48
2023-05-12T10:10:04.378Z,99260.80
2023-05-12T10:12:32.305Z,99260.18
2023-05-12T10:15:00.907Z,99261.38
2023-05-12T10:17:29.174Z,99260.13
2023-05-12T10:19:58.230Z,99255.95
2023-05-12T10:22:28.945Z,99253.92
2023-05-12T10:24:57.832Z,99246.25
2023-05-12T10:27:27.228Z,99248.55
2023-05-12T10:29:56.274Z,99246.41
2023-05-12T10:32:24.201Z,99245.23
2023-05-12T10:34:52.228Z,99242.11
2023-05-12T10:37:23.423Z,99242.62
2023-05-12T10:39:52.972Z,99244.03
2023-05-12T10:42:26.426Z,99241.65
2023-05-12T10:44:54.887Z,99243.54
2023-05-12T10:47:36.077Z,99239.36
2023-05-12T10:50:04.155Z,99239.92
2023-05-12T10:52:32.146Z,99239.20
2023-05-12T10:55:01.802Z,99241.84
2023-05-12T10:57:31.252Z,99244.50
2023-05-12T11:00:01.125Z,99243.65
2023-05-12T11:02:35.937Z,99241.29
2023-05-12T11:05:13.184Z,99240.51
2023-05-12T11:07:49.630Z,99243.11
2023-05-12T11:10:19.639Z,99247.61
2023-05-12T11:12:48.125Z,99241.59
2023-05-12T11:15:18.114Z,99236.90
2023-05-12T11:17:46.582Z,99231.52
2023-05-12T11:20:25.552Z,99234.10
2023-05-12T11:22:54.262Z,99235.77
2023-05-12T11:25:22.690Z,99229.80
2023-05-12T11:27:51.355Z,99227.88
2023-05-12T11:30:19.932Z,99229.95
2023-05-12T11:32:48.500Z,99227.52
2023-05-12T11:35:18.706Z,99230.58
2023-05-12T11:37:47.088Z,99233.76
2023-05-12T11:40:17.265Z,99233.69
2023-05-12T11:42:48.893Z,99238.15
2023-05-12T11:45:35.304Z,99235.39
2023-05-12T11:48:07.844Z,99242.17
2023-05-12T11:50:40.285Z,99241.49
2023-05-12T11:53:17.337Z,99244.36
2023-05-12T11:55:53.535Z,99239.07
2023-05-12T11:58:30.711Z,99235.91
2023-05-12T12:01:10.479Z,99238.51
2023-05-12T12:03:49.926Z,99242.06
2023-05-12T12:06:19.128Z,99234.82
2023-05-12T12:08:59.967Z,99230.74
2023-05-12T12:11:28.466Z,99233.83
2023-05-12T12:13:57.598Z,99233.52
2023-05-12T12:16:27.178Z,99232.04
2023-05-12T12:18:56.023Z,99232.02
2023-05-12T12:21:25.558Z,99233.87
2023-05-12T12:23:53.586Z,99228.82
2023-05-12T12:26:22.989Z,99226.52
2023-05-12T12:28:51.032Z,99224.05
2023-05-12T12:31:19.036Z,99223.84
2023-05-12T12:33:46.987Z,99225.11
2023-05-12T12:36:14.948Z,99226.63
2023-05-12T12:38:42.807Z,99228.05
2023-05-12T12:41:10.695Z,99223.38
2023-05-12T12:43:38.783Z,99222.90
2023-05-12T12:46:06.722Z,99227.05
2023-05-12T12:48:34.663Z,99228.21
2023-05-12T12:51:02.612Z,99226.57
2023-05-12T12:53:30.734Z,99225.50
2023-05-12T12:55:58.662Z,99225.48
2023-05-12T12:58:26.727Z,99228.96
2023-05-12T13:00:54.786Z,99223.04
2023-05-12T13:03:24.190Z,99216.19
2023-05-12T13:05:52.381Z,99217.05
2023-05-12T13:08:21.176Z,99218.27
2023-05-12T13:10:49.114Z,99215.83
2023-05-12T13:13:17.111Z,99220.17
2023-05-12T13:15:45.067Z,99221.29
2023-05-12T13:18:13.200Z,99221.88
2023-05-12T13:20:41.232Z,99226.74
2023-05-12T13:23:09.196Z,99218.21
2023-05-12T13:25:37.138Z,99222.64
2023-05-12T13:28:05.518Z,99225.88
2023-05-12T13:30:33.516Z,99219.87
2023-05-12T13:33:02.706Z,99223.23
2023-05-12T13:35:31.731Z,99216.30
2023-05-12T13:37:59.675Z,99212.71
2023-05-12T13:40:27.748Z,99219.17
2023-05-12T13:42:55.861Z,99219.87
2023-05-12T13:45:23.922Z,99220.18
2023-05-12T13:47:52.116Z,99216.02
2023-05-12T13:50:20.150Z,99217.48
2023-05-12T13:52:48.129Z,99221.61
2023-05-12T13:55:20.910Z,99220.92
2023-05-12T13:57:49.687Z,99220.20
2023-05-12T14:00:17.858Z,99220.20
2023-05-12T14:02:45.902Z,99224.05
2023-05-12T14:05:14.094Z,99225.76
2023-05-12T14:07:42.689Z,99227.91
2023-05-12T14:10:11.065Z,99226.85
2023-05-12T14:12:39.063Z,99224.23
2023-05-12T14:15:23.627Z,99225.77
2023-05-12T14:17:54.617Z,99230.27
2023-05-12T14:20:22.545Z,99228.41
2023-05-12T14:22:50.948Z,99224.52
2023-05-12T14:25:19.536Z,99227.17
2023-05-12T14:27:47.616Z,99227.58
2023-05-12T14:30:15.640Z,99226.73
2023-05-12T14:32:43.716Z,99228.99
2023-05-12T14:35:11.792Z,99226.59
2023-05-12T14:37:39.700Z,99223.62
2023-05-12T14:40:08.574Z,99222.20
2023-05-12T14:42:36.571Z,99222.88
2023-05-12T14:45:05.124Z,99223.30
2023-05-12T14:47:33.036Z,99222.95
2023-05-12T14:50:01.111Z,99226.16
2023-05-12T14:52:29.040Z,99226.30
2023-05-12T14:54:57.159Z,99225.65
2023-05-12T14:57:25.126Z,99225.73
2023-05-12T14:59:56.388Z,99230.11
2023-05-12T15:02:24.495Z,99229.83
2023-05-12T15:04:52.444Z,99228.67
2023-05-12T15:07:22.487Z,99222.19
2023-05-12T15:09:50.746Z,99228.63
2023-05-12T15:12:19.381Z,99238.28
2023-05-12T15:14:47.644Z,99240.77
2023-05-12T15:17:16.220Z,99244.88
2023-05-12T15:19:44.580Z,99246.39
2023-05-12T15:22:12.566Z,99245.84
2023-05-12T15:24:40.407Z,99246.09
2023-05-12T15:27:08.392Z,99240.02
2023-05-12T15:29:39.949Z,99242.52
2023-05-12T15:32:08.033Z,99245.52
2023-05-12T15:34:36.034Z,99245.48
2023-05-12T15:37:04.215Z,99245.98
2023-05-12T15:39:32.070Z,99250.71
2023-05-12T15:42:00.260Z,99252.30
2023-05-12T15:44:28.277Z,99253.02
2023-05-12T15:46:56.178Z,99250.30
2023-05-12T15:49:24.768Z,99252.10
2023-05-12T15:51:52.737Z,99248.04
2023-05-12T15:54:21.580Z,99247.36
2023-05-12T15:56:52.116Z,99247.52
2023-05-12T15:59:20.241Z,99243.96
2023-05-12T16:01:48.095Z,99245.44
2023-05-12T16:04:16.143Z,99244.63
2023-05-12T16:06:44.084Z,99239.20
2023-05-12T16:09:12.594Z,99241.29
2023-05-12T16:11:40.539Z,99241.68
2023-05-12T16:14:08.810Z,99242.08
2023-05-12T16:16:38.268Z,99244.11
2023-05-12T16:19:06.339Z,99243.83
2023-05-12T16:21:34.334Z,99244.20
2023-05-12T16:24:03.509Z,99240.79
2023-05-12T16:26:31.400Z,99247.15
2023-05-12T16:28:59.347Z,99245.07
2023-05-12T16:31:27.640Z,99247.62
2023-05-12T16:33:55.668Z,99251.69
2023-05-12T16:36:24.590Z,99248.30
2023-05-12T16:38:52.706Z,99249.89
2023-05-12T16:41:20.598Z,99252.00
2023-05-12T16:43:48.543Z,99251.91
2023-05-12T16:46:16.523Z,99250.55
2023-05-12T16:48:44.688Z,99247.76
2023-05-12T16:51:12.636Z,99248.14
2023-05-12T16:53:41.167Z,99249.33
2023-05-12T16:56:09.535Z,99251.60
2023-05-12T16:58:37.658Z,99251.31
2023-05-12T17:01:05.782Z,99250.37
2023-05-12T17:03:33.889Z,99250.64
2023-05-12T17:06:01.949Z,99248.71
2023-05-12T17:08:29.834Z,99256.96
2023-05-12T17:10:57.766Z,99261.80
2023-05-12T17:13:25.672Z,99260.21
2023-05-12T17:15:53.793Z,99264.67
2023-05-12T17:18:21.969Z,99265.30
2023-05-12T17:20:49.904Z,99263.54
2023-05-12T17:23:17.825Z,99265.73
2023-05-12T17:25:45.764Z,99267.92
2023-05-12T17:28:13.756Z,99271.69
2023-05-12T17:30:41.692Z,99271.62
2023-05-12T17:33:09.757Z,99268.41
2023-05-12T17:35:37.660Z,99270.58
2023-05-12T17:38:05.624Z,99274.67
2023-05-12T17:40:33.818Z,99275.38
2023-05-12T17:43:01.646Z,99279.21
2023-05-12T17:45:29.574Z,99281.32
2023-05-12T17:47:57.608Z,99282.49
2023-05-12T17:50:25.541Z,99289.05
2023-05-12T17:52:54.957Z,99291.94
2023-05-12T17:55:23.183Z,99290.73
2023-05-12T17:57:51.387Z,99292.58
2023-05-12T18:00:19.529Z,99291.77
2023-05-12T18:02:47.865Z,99292.19
2023-05-12T18:05:15.908Z,99297.60
2023-05-12T18:07:43.784Z,99301.25
2023-05-12T18:10:11.858Z,99304.42
2023-05-12T18:12:39.836Z,99301.48
2023-05-12T18:15:08.832Z,99303.01
2023-05-12T18:17:37.150Z,99303.66
2023-05-12T18:20:06.673Z,99308.96
2023-05-12T18:22:34.864Z,99309.75
2023-05-12T18:25:02.855Z,99312.73
2023-05-12T18:27:31.038Z,99313.31
2023-05-12T18:29:58.996Z,99311.16
2023-05-12T18:32:26.983Z,99315.77
2023-05-12T18:34:55.048Z,99320.09
2023-05-12T18:37:23.249Z,99321.59
2023-05-12T18:39:53.396Z,99320.94
2023-05-12T18:42:21.411Z,99324.59
2023-05-12T18:44:49.370Z,99331.69
2023-05-12T18:47:17.524Z,99334.40
2023-05-12T18:49:45.491Z,99340.68
2023-05-12T18:52:13.409Z,99342.52
2023-05-12T18:54:42.643Z,99344.61
2023-05-12T18:57:11.357Z,99354.54
2023-05-12T18:59:39.226Z,99355.42
2023-05-12T19:02:07.265Z,99358.70
2023-05-12T19:04:35.322Z,99355.81
2023-05-12T19:07:03.949Z,99361.40
2023-05-12T19:09:31.862Z,99366.61
2023-05-12T19:11:59.847Z,99368.07
2023-05-12T19:14:27.702Z,99374.46
2023-05-12T19:16:55.576Z,99376.60
2023-05-12T19:19:23.591Z,99375.63
2023-05-12T19:21:52.464Z,99379.93
2023-05-12T19:24:20.509Z,99383.27
2023-05-12T19:26:48.480Z,99382.39
2023-05-12T19:29:16.543Z,99387.85
2023-05-12T19:31:44.635Z,99391.52
2023-05-12T19:34:12.633Z,99395.11
2023-05-12T19:36:40.558Z,99397.34
2023-05-12T19:39:08.437Z,99401.45
2023-05-12T19:41:36.341Z,99406.37
2023-05-12T19:44:04.314Z,99407.78
2023-05-12T19:46:32.303Z,99411.27
2023-05-12T19:49:00.383Z,99414.66
2023-05-12T19:51:28.494Z,99413.67
2023-05-12T19:53:56.546Z,99419.55
2023-05-12T19:56:24.541Z,99418.01
2023-05-12T19:58:52.526Z,99420.20
2023-05-12T20:01:20.630Z,99421.19
2023-05-12T20:03:48.672Z,99420.94
2023-05-12T20:06:16.699Z,99419.73
2023-05-12T20:08:44.603Z,99420.25
2023-05-12T20:11:12.550Z,99422.73
2023-05-12T20:13:40.647Z,99421.67
2023-05-12T20:16:09.088Z,99421.17
2023-05-12T20:18:37.245Z,99418.88
2023-05-12T20:21:05.265Z,99424.09
2023-05-12T20:23:33.245Z,99426.48
2023-05-12T20:26:01.355Z,99424.88
2023-05-12T20:28:29.322Z,99423.69
2023-05-12T20:30:57.333Z,99424.20
2023-05-12T20:33:25.347Z,99425.98
2023-05-12T20:35:53.722Z,99428.95
2023-05-12T20:38:21.622Z,99430.00
2023-05-12T20:40:49.582Z,99430.59
2023-05-12T20:43:17.734Z,99431.35
2023-05-12T20:45:45.793Z,99431.65
2023-05-12T20:48:14.337Z,99436.31
2023-05-12T20:50:43.167Z,99438.16
2023-05-12T20:53:11.208Z,99439.85
2023-05-12T20:55:42.940Z,99444.60
2023-05-12T20:58:11.004Z,99446.61
2023-05-12T21:00:39.062Z,99449.59
2023-05-12T21:03:07.156Z,99449.16
2023-05-12T21:05:35.069Z,99452.64
2023-05-12T21:08:03.316Z,99456.02
2023-05-12T21:10:31.604Z,99459.12
2023-05-12T21:12:59.567Z,99456.46
2023-05-12T21:15:27.530Z,99460.05
2023-05-12T21:17:55.442Z,99460.17
2023-05-12T21:20:23.543Z,99465.55
2023-05-12T21:22:51.505Z,99467.10
2023-05-12T21:25:19.641Z,99469.09
2023-05-12T21:27:47.684Z,99466.27
2023-05-12T21:30:15.638Z,99468.05
2023-05-12T21:32:43.653Z,99469.70
2023-05-12T21:35:11.632Z,99471.83
2023-05-12T21:37:39.627Z,99471.70
2023-05-12T21:40:08.321Z,99473.86
2023-05-12T21:42:36.234Z,99477.41
2023-05-12T21:45:04.512Z,99477.30
2023-05-12T21:47:33.236Z,99478.60
2023-05-12T21:50:01.393Z,99482.33
2023-05-12T21:52:29.323Z,99484.35
2023-05-12T21:54:58.045Z,99485.49
2023-05-12T21:57:26.064Z,99487.51
2023-05-12T21:59:54.122Z,99483.80
2023-05-12T22:02:22.362Z,99482.19
2023-05-12T22:04:50.268Z,99480.38
2023-05-12T22:07:18.132Z,99478.98
2023-05-12T22:09:46.089Z,99482.11
2023-05-12T22:12:17.463Z,99483.89
2023-05-12T22:14:45.363Z,99478.95
2023-05-12T22:17:13.521Z,99478.55
2023-05-12T22:19:41.528Z,99481.31
2023-05-12T22:22:09.498Z,99482.05
2023-05-12T22:24:37.433Z,99481.34
2023-05-12T22:27:05.554Z,99481.33
2023-05-12T22:29:33.476Z,99487.81
2023-05-12T22:32:01.360Z,99482.50
2023-05-12T22:34:29.302Z,99480.21
2023-05-12T22:36:57.387Z,99484.36
2023-05-12T22:39:25.450Z,99483.38
2023-05-12T22:41:53.376Z,99481.41
2023-05-12T22:44:21.234Z,99478.95
2023-05-12T22:46:49.208Z,99479.55
2023-05-12T22:49:17.106Z,99478.66
2023-05-12T22:51:45.009Z,99479.16
2023-05-12T22:54:12.950Z,99476.60
2023-05-12T22:56:40.979Z,99474.60
2023-05-12T22:59:08.874Z,99477.71
2023-05-12T23:01:36.771Z,99480.98
2023-05-12T23:04:04.743Z,99481.13
2023-05-12T23:06:32.807Z,99481.63
2023-05-12T23:09:01.118Z,99483.56
2023-05-12T23:11:29.033Z,99483.58
2023-05-12T23:13:57.431Z,99487.27
2023-05-12T23:16:25.691Z,99482.66
2023-05-12T23:18:53.743Z,99479.98
2023-05-12T23:21:21.710Z,99479.12
2023-05-12T23:23:49.598Z,99474.87
2023-05-12T23:26:17.522Z,99476.99
2023-05-12T23:28:45.380Z,99476.52
2023-05-12T23:31:13.355Z,99472.96
2023-05-12T23:33:41.488Z,99475.04
2023-05-12T23:36:09.758Z,99478.02
2023-05-12T23:38:37.716Z,99476.30
2023-05-12T23:41:05.682Z,99475.27
2023-05-12T23:43:33.778Z,99472.63
2023-05-12T23:46:02.056Z,99468.55
2023-05-12T23:48:30.351Z,99470.67
2023-05-12T23:50:58.211Z,99467.56
2023-05-12T23:53:26.264Z,99465.31
2023-05-12T23:55:54.155Z,99466.91
2023-05-12T23:58:22.053Z,99469.59
